Time;durP1;ratioP1;P1;durP2;ratioP2;P2;SDS_P1;SDS_P2;PMS_P1;PMS_P2;Temp;Humidity;BMP_temperature;BMP_pressure;BME280_temperature;BME280_humidity;BME280_pressure;Samples;Min_cycle;Max_cycle;Signal;HPM_P1;HPM_P2
2021/05/11 00:02:19;;;;;;;6.95;2.00;;;32.20;25.60;;;;;;5061090;28;20037;-70
2021/05/11 00:04:45;;;;;;;5.03;1.33;;;31.90;25.90;;;;;;5062126;28;20048;-71
2021/05/11 00:07:12;;;;;;;17.02;4.03;;;31.80;26.20;;;;;;5058314;28;20040;-69
2021/05/11 00:09:38;;;;;;;9.48;2.08;;;31.70;26.30;;;;;;5060327;28;20074;-70
2021/05/11 00:12:06;;;;;;;8.40;2.15;;;31.60;26.30;;;;;;5057762;28;20119;-70
2021/05/11 00:14:33;;;;;;;7.97;1.58;;;31.40;26.60;;;;;;5058779;28;20058;-69
2021/05/11 00:16:59;;;;;;;4.40;1.75;;;31.40;26.80;;;;;;5058546;28;20017;-70
2021/05/11 00:19:27;;;;;;;6.75;1.10;;;31.40;26.30;;;;;;5050512;28;20094;-69
2021/05/11 00:21:54;;;;;;;9.20;3.17;;;31.30;26.50;;;;;;5062453;28;20020;-69
2021/05/11 00:24:20;;;;;;;6.93;1.40;;;31.20;26.50;;;;;;5062983;28;20036;-69
2021/05/11 00:26:47;;;;;;;14.18;2.28;;;31.00;26.60;;;;;;5062849;28;20340;-69
2021/05/11 00:29:13;;;;;;;6.32;2.30;;;30.90;26.70;;;;;;5061960;28;20028;-70
2021/05/11 00:31:40;;;;;;;10.05;2.10;;;30.80;26.80;;;;;;5062727;28;20045;-69
2021/05/11 00:34:06;;;;;;;9.00;1.88;;;30.70;26.60;;;;;;5062651;28;20033;-69
2021/05/11 00:36:33;;;;;;;6.95;1.63;;;30.60;26.80;;;;;;5063510;28;20036;-69
2021/05/11 00:38:59;;;;;;;13.52;2.22;;;30.40;27.40;;;;;;5065199;28;20021;-70
2021/05/11 00:41:26;;;;;;;6.13;1.98;;;30.30;26.80;;;;;;5066716;28;20462;-69
2021/05/11 00:43:52;;;;;;;15.80;2.45;;;30.30;26.70;;;;;;5066366;28;20025;-69
2021/05/11 00:46:18;;;;;;;15.32;1.98;;;30.30;26.70;;;;;;5063664;28;20447;-70
2021/05/11 00:48:45;;;;;;;8.20;1.60;;;30.00;27.30;;;;;;5066560;28;20029;-70
2021/05/11 00:51:12;;;;;;;5.53;2.45;;;29.80;27.40;;;;;;5066721;28;20028;-69
2021/05/11 00:53:42;;;;;;;4.07;0.90;;;30.00;27.00;;;;;;5060633;28;20032;-70
2021/05/11 00:56:10;;;;;;;4.72;1.15;;;29.70;27.70;;;;;;5065437;28;20028;-70
2021/05/11 00:58:36;;;;;;;7.03;2.00;;;29.80;27.00;;;;;;5066726;28;20024;-70
2021/05/11 01:01:03;;;;;;;5.57;1.60;;;29.80;27.10;;;;;;5064915;28;20040;-69
2021/05/11 01:03:30;;;;;;;6.82;1.45;;;29.90;27.00;;;;;;5065822;28;20163;-69
2021/05/11 01:05:56;;;;;;;7.72;2.80;;;29.80;27.20;;;;;;5065812;28;20017;-70
2021/05/11 01:08:23;;;;;;;10.27;2.35;;;29.70;27.30;;;;;;5065394;28;20028;-69
2021/05/11 01:10:50;;;;;;;8.52;2.67;;;29.80;27.00;;;;;;5063956;28;20087;-71
2021/05/11 01:13:16;;;;;;;6.32;1.60;;;29.90;26.40;;;;;;5065936;28;20540;-69
2021/05/11 01:15:47;;;;;;;9.23;2.20;;;29.60;26.80;;;;;;5064408;28;20358;-71
2021/05/11 01:18:24;;;;;;;7.20;1.52;;;29.50;27.10;;;;;;5066259;28;20082;-70
2021/05/11 01:20:51;;;;;;;5.13;1.33;;;29.40;27.00;;;;;;5062321;28;20433;-71
2021/05/11 01:26:02;;;;;;;5.80;1.77;;;29.20;27.20;;;;;;5064086;28;20373;-71
2021/05/11 01:28:39;;;;;;;8.00;2.08;;;29.20;27.10;;;;;;5065246;28;20017;-70
2021/05/11 01:31:32;;;;;;;4.60;1.35;;;29.20;27.10;;;;;;5064990;28;20357;-70
2021/05/11 02:25:01;;;;;;;7.28;1.83;;;27.00;28.20;;;;;;5063605;28;20040;-70
2021/05/11 02:27:28;;;;;;;6.32;2.08;;;26.80;28.40;;;;;;5061392;28;20035;-70
2021/05/11 02:29:54;;;;;;;10.43;3.00;;;26.80;28.30;;;;;;5062089;28;20094;-70
2021/05/11 02:32:21;;;;;;;2.60;1.73;;;26.50;28.50;;;;;;5059464;28;20025;-70
2021/05/11 02:34:48;;;;;;;5.38;2.38;;;26.40;28.70;;;;;;5062230;28;20089;-70
2021/05/11 02:37:15;;;;;;;8.25;1.52;;;26.20;28.70;;;;;;5063880;28;20473;-72
2021/05/11 02:39:42;;;;;;;11.15;2.33;;;26.20;28.80;;;;;;5064302;28;20028;-73
2021/05/11 02:42:09;;;;;;;9.57;2.25;;;26.20;28.60;;;;;;5065864;28;20108;-73
2021/05/11 02:44:44;;;;;;;5.47;1.70;;;26.00;28.70;;;;;;5061263;28;20029;-74
2021/05/11 02:47:11;;;;;;;5.45;1.58;;;25.90;28.80;;;;;;5059896;28;20016;-73
2021/05/11 02:49:41;;;;;;;8.07;2.80;;;25.70;28.90;;;;;;5063470;28;20047;-74
2021/05/11 02:52:08;;;;;;;7.88;1.45;;;25.60;29.00;;;;;;5063571;28;20079;-74
2021/05/11 02:54:35;;;;;;;10.48;2.03;;;25.40;29.20;;;;;;5056395;28;20021;-73
2021/05/11 02:57:01;;;;;;;5.57;1.45;;;25.30;29.20;;;;;;5062039;28;20036;-75
2021/05/11 02:59:27;;;;;;;5.75;1.70;;;25.30;29.30;;;;;;5045601;28;20505;-74
2021/05/11 03:01:54;;;;;;;8.70;1.98;;;25.20;29.70;;;;;;5060194;28;20040;-73
2021/05/11 03:04:21;;;;;;;5.70;1.58;;;25.10;29.40;;;;;;5058250;28;20032;-74
2021/05/11 03:06:47;;;;;;;6.28;1.58;;;25.20;29.40;;;;;;5061290;28;20458;-72
2021/05/11 03:09:14;;;;;;;7.57;1.73;;;25.10;29.30;;;;;;5062420;28;20043;-69
2021/05/11 03:11:40;;;;;;;7.70;3.55;;;25.20;29.50;;;;;;5057993;28;20070;-70
2021/05/11 03:14:07;;;;;;;6.30;1.52;;;24.90;29.50;;;;;;5061228;28;20400;-70
2021/05/11 03:16:35;;;;;;;8.43;2.10;;;24.70;29.70;;;;;;5062218;28;20123;-71
2021/05/11 03:19:02;;;;;;;10.75;2.17;;;24.70;29.60;;;;;;5062853;28;20382;-71
2021/05/11 03:21:29;;;;;;;11.73;1.65;;;24.70;29.90;;;;;;5062570;28;20029;-72
2021/05/11 03:23:55;;;;;;;6.47;2.08;;;24.60;30.00;;;;;;5060081;28;20347;-70
2021/05/11 03:26:21;;;;;;;5.97;1.85;;;24.60;30.20;;;;;;5062747;28;20103;-69
2021/05/11 03:28:48;;;;;;;9.18;2.72;;;24.20;30.10;;;;;;5062310;28;20100;-73
2021/05/11 03:31:14;;;;;;;4.57;2.20;;;24.00;30.50;;;;;;5061172;28;20110;-71
2021/05/11 03:33:41;;;;;;;8.77;2.58;;;23.90;30.40;;;;;;5062061;28;20063;-69
2021/05/11 03:36:07;;;;;;;8.00;1.90;;;23.80;30.90;;;;;;5057277;28;20037;-69
2021/05/11 03:38:34;;;;;;;14.07;1.55;;;23.60;31.20;;;;;;5058438;28;20040;-69
2021/05/11 03:41:01;;;;;;;12.85;2.55;;;23.60;31.10;;;;;;5057549;28;20016;-69
2021/05/11 03:43:33;;;;;;;9.25;1.92;;;23.60;31.50;;;;;;5055688;28;20366;-70
2021/05/11 03:46:05;;;;;;;8.57;2.85;;;23.50;31.40;;;;;;5061849;28;20049;-69
2021/05/11 03:48:32;;;;;;;4.93;1.58;;;23.20;31.70;;;;;;5059772;28;20028;-69
2021/05/11 03:51:05;;;;;;;12.05;2.45;;;23.10;32.30;;;;;;5060635;28;20557;-69
2021/05/11 03:53:33;;;;;;;5.53;1.55;;;23.10;32.20;;;;;;5060310;28;20029;-69
2021/05/11 03:56:00;;;;;;;5.65;2.05;;;23.10;32.20;;;;;;5062952;28;20025;-69
2021/05/11 03:58:27;;;;;;;11.35;3.60;;;23.00;31.80;;;;;;5060843;28;20024;-69
2021/05/11 04:00:54;;;;;;;9.77;2.13;;;22.90;32.60;;;;;;5063449;28;20035;-69
2021/05/11 04:03:20;;;;;;;6.68;2.90;;;22.80;32.20;;;;;;5061481;28;20437;-69
2021/05/11 04:05:49;;;;;;;12.68;2.63;;;22.70;32.50;;;;;;5062720;28;20040;-69
2021/05/11 04:09:08;;;;;;;11.02;2.28;;;22.40;33.10;;;;;;5061323;28;20373;-69
2021/05/11 04:11:16;;;;;;;10.32;3.05;;;22.20;33.50;;;;;;5057453;28;20116;-69
2021/05/11 04:16:46;;;;;;;6.35;1.73;;;22.10;33.80;;;;;;5043297;28;20040;-69
2021/05/11 04:19:13;;;;;;;6.72;1.70;;;22.10;33.80;;;;;;5059727;28;20085;-69
2021/05/11 04:21:39;;;;;;;5.65;2.10;;;22.00;33.30;;;;;;5066734;28;20036;-69
2021/05/11 04:24:07;;;;;;;7.60;2.55;;;22.00;33.10;;;;;;5060401;28;20427;-69
2021/05/11 04:26:34;;;;;;;9.88;2.30;;;22.00;33.40;;;;;;5064399;28;20028;-70
2021/05/11 04:29:01;;;;;;;9.27;3.05;;;21.90;33.40;;;;;;5062582;28;20104;-70
2021/05/11 04:31:29;;;;;;;9.73;3.38;;;21.60;34.50;;;;;;5064668;28;20021;-69
2021/05/11 04:33:57;;;;;;;11.98;2.70;;;21.50;36.70;;;;;;5062917;28;20423;-70
2021/05/11 04:36:23;;;;;;;13.30;3.03;;;21.40;36.80;;;;;;5062443;28;20037;-70
2021/05/11 04:38:50;;;;;;;16.70;5.15;;;21.30;38.90;;;;;;5066629;28;20032;-70
2021/05/11 04:41:16;;;;;;;14.95;3.75;;;21.00;39.80;;;;;;5063317;28;20038;-69
2021/05/11 04:43:44;;;;;;;10.32;2.13;;;20.90;39.90;;;;;;5063605;28;20311;-70
2021/05/11 04:46:24;;;;;;;12.55;4.03;;;20.90;39.10;;;;;;5057815;28;20079;-69
2021/05/11 04:48:52;;;;;;;10.85;3.60;;;21.00;37.70;;;;;;5061906;28;20458;-69
2021/05/11 04:51:20;;;;;;;7.28;2.60;;;21.00;37.50;;;;;;5053485;28;20024;-69
2021/05/11 04:53:48;;;;;;;14.15;2.97;;;20.90;37.50;;;;;;5061068;28;20031;-70
2021/05/11 04:56:14;;;;;;;8.52;2.33;;;21.00;37.40;;;;;;5065259;28;20021;-70
2021/05/11 04:58:41;;;;;;;9.50;2.75;;;20.90;37.00;;;;;;5063774;28;20029;-70
2021/05/11 05:01:07;;;;;;;9.10;2.60;;;20.90;37.10;;;;;;5064313;28;20454;-70
2021/05/11 05:03:40;;;;;;;12.10;4.97;;;20.80;37.00;;;;;;5065655;28;20040;-70
2021/05/11 05:06:07;;;;;;;17.02;2.38;;;20.80;37.20;;;;;;5065732;28;20074;-69
2021/05/11 05:08:33;;;;;;;13.65;3.67;;;20.80;37.50;;;;;;5063876;28;20029;-69
2021/05/11 05:11:00;;;;;;;10.82;3.50;;;20.70;37.40;;;;;;5061759;28;20025;-70
2021/05/11 05:13:27;;;;;;;8.90;2.45;;;20.60;37.20;;;;;;5064512;28;20039;-69
2021/05/11 05:15:55;;;;;;;9.95;2.50;;;20.50;38.00;;;;;;5066138;28;20028;-69
2021/05/11 05:18:23;;;;;;;8.52;3.75;;;20.40;36.40;;;;;;5065139;28;20041;-69
2021/05/11 05:20:51;;;;;;;7.90;2.80;;;20.40;35.20;;;;;;5065733;28;20028;-69
2021/05/11 05:23:19;;;;;;;5.70;1.60;;;20.30;36.20;;;;;;5062202;28;20451;-69
2021/05/11 05:26:25;;;;;;;13.05;2.60;;;20.20;36.20;;;;;;5064076;28;20051;-69
2021/05/11 05:28:43;;;;;;;6.18;1.67;;;20.00;36.40;;;;;;5059798;28;20033;-69
2021/05/11 05:31:10;;;;;;;9.68;2.63;;;19.90;36.70;;;;;;5057472;28;20017;-69
2021/05/11 05:33:39;;;;;;;10.38;1.63;;;19.80;36.50;;;;;;5061142;28;20025;-69
2021/05/11 05:36:07;;;;;;;6.60;2.72;;;19.70;37.00;;;;;;5058924;28;20024;-69
2021/05/11 05:38:36;;;;;;;3.28;2.08;;;19.60;37.30;;;;;;5062667;28;20021;-70
2021/05/11 05:41:06;;;;;;;10.98;2.42;;;19.50;37.10;;;;;;5062416;28;20498;-69
2021/05/11 05:43:32;;;;;;;7.38;2.10;;;19.40;38.60;;;;;;5064862;28;20490;-69
2021/05/11 05:45:59;;;;;;;8.20;2.58;;;19.30;37.50;;;;;;5062791;28;20025;-69
2021/05/11 05:48:26;;;;;;;6.03;2.63;;;19.30;37.80;;;;;;5062930;28;20025;-69
2021/05/11 05:50:56;;;;;;;10.68;3.22;;;19.20;37.50;;;;;;5062706;28;20014;-69
2021/05/11 05:53:25;;;;;;;6.68;2.42;;;19.20;37.70;;;;;;5061873;28;20127;-70
2021/05/11 05:55:52;;;;;;;8.60;2.90;;;19.10;37.80;;;;;;5063137;28;20044;-69
2021/05/11 05:58:18;;;;;;;10.45;3.28;;;19.00;38.00;;;;;;5063791;28;20037;-69
2021/05/11 06:00:46;;;;;;;6.05;1.88;;;18.90;37.80;;;;;;5058345;28;20029;-69
2021/05/11 06:03:31;;;;;;;8.57;1.67;;;18.80;38.50;;;;;;5064773;28;20025;-69
2021/05/11 06:05:57;;;;;;;12.55;1.70;;;18.80;37.80;;;;;;5065655;28;20414;-69
2021/05/11 06:08:26;;;;;;;10.05;1.80;;;18.80;37.70;;;;;;5064633;28;20035;-69
2021/05/11 06:10:58;;;;;;;4.78;2.03;;;18.70;38.00;;;;;;5062003;28;20108;-70
2021/05/11 06:13:31;;;;;;;12.13;2.80;;;18.60;38.00;;;;;;5063640;28;20033;-69
2021/05/11 06:18:43;;;;;;;5.13;1.50;;;18.60;37.90;;;;;;5063309;28;20065;-69
2021/05/11 06:21:09;;;;;;;9.13;2.60;;;18.50;38.70;;;;;;5060599;28;20036;-69
2021/05/11 06:23:36;;;;;;;8.25;2.08;;;18.40;38.30;;;;;;5060565;28;20434;-70
2021/05/11 06:26:02;;;;;;;5.95;2.47;;;18.40;38.50;;;;;;5062000;28;20021;-69
2021/05/11 06:28:29;;;;;;;8.05;1.73;;;18.40;38.60;;;;;;5062092;28;20025;-69
2021/05/11 06:30:55;;;;;;;9.80;2.47;;;18.30;38.50;;;;;;5061178;28;20071;-69
2021/05/11 06:33:21;;;;;;;11.07;2.72;;;18.30;38.80;;;;;;5063147;28;20052;-69
2021/05/11 06:35:52;;;;;;;5.90;2.20;;;18.20;38.40;;;;;;5061437;28;20072;-69
2021/05/11 06:38:18;;;;;;;7.68;2.38;;;18.10;38.70;;;;;;5064564;28;20024;-69
2021/05/11 06:40:45;;;;;;;8.38;2.72;;;18.10;38.80;;;;;;5061407;28;20024;-69
2021/05/11 06:43:11;;;;;;;11.85;2.60;;;18.10;38.90;;;;;;5062008;28;20447;-69
2021/05/11 06:48:25;;;;;;;13.43;3.28;;;18.00;39.40;;;;;;5058585;28;20062;-69
2021/05/11 06:53:37;;;;;;;8.85;2.42;;;17.90;39.40;;;;;;5061463;28;20024;-69
2021/05/11 06:56:06;;;;;;;8.25;2.15;;;17.80;37.10;;;;;;5061547;28;20021;-71
2021/05/11 06:58:32;;;;;;;9.68;3.88;;;17.80;39.40;;;;;;5062342;28;20465;-69
2021/05/11 07:00:59;;;;;;;6.47;2.30;;;17.80;37.90;;;;;;5061045;28;20159;-69
2021/05/11 07:03:25;;;;;;;10.10;2.35;;;17.80;39.10;;;;;;5061819;28;20413;-69
2021/05/11 07:05:52;;;;;;;17.52;2.70;;;17.80;37.90;;;;;;5062893;28;20463;-69
2021/05/11 07:08:56;;;;;;;8.57;2.13;;;17.80;39.40;;;;;;5062758;28;20020;-69
2021/05/11 07:13:48;;;;;;;6.22;2.33;;;17.60;40.60;;;;;;5063058;28;20021;-69
2021/05/11 07:16:15;;;;;;;6.03;2.30;;;17.50;40.40;;;;;;5062409;28;20039;-69
2021/05/11 07:18:41;;;;;;;8.38;2.63;;;17.50;41.00;;;;;;5062618;28;20350;-70
2021/05/11 07:21:08;;;;;;;10.63;2.80;;;17.50;40.40;;;;;;5061073;28;20048;-70
2021/05/11 07:23:34;;;;;;;10.18;2.35;;;17.40;40.30;;;;;;5059434;28;20882;-69
2021/05/11 07:26:09;;;;;;;8.88;2.30;;;17.40;40.30;;;;;;5060072;28;20033;-69
2021/05/11 07:29:00;;;;;;;7.40;2.97;;;17.40;40.70;;;;;;5061655;28;20039;-69
2021/05/11 07:31:27;;;;;;;11.75;3.35;;;17.40;40.30;;;;;;5062112;28;20350;-69
2021/05/11 07:33:55;;;;;;;10.93;2.72;;;17.40;40.90;;;;;;5062400;28;20500;-69
2021/05/11 07:36:22;;;;;;;11.57;3.40;;;17.30;41.00;;;;;;5062324;28;20366;-69
2021/05/11 07:38:49;;;;;;;13.27;2.80;;;17.30;40.80;;;;;;5061332;28;20020;-69
2021/05/11 07:41:17;;;;;;;8.32;2.38;;;17.30;38.70;;;;;;5061274;28;20465;-69
2021/05/11 07:43:48;;;;;;;11.23;3.58;;;17.30;38.70;;;;;;5061596;28;20507;-69
2021/05/11 07:46:36;;;;;;;15.57;3.57;;;17.30;38.90;;;;;;5059720;28;20336;-69
2021/05/11 08:10:31;;;;;;;11.35;2.35;;;17.00;40.30;;;;;;5062864;28;20059;-69
2021/05/11 08:15:47;;;;;;;11.27;3.47;;;16.90;43.40;;;;;;5059488;28;20043;-70
2021/05/11 08:29:12;;;;;;;9.88;2.97;;;16.70;43.20;;;;;;5061452;28;20035;-69
2021/05/11 08:31:40;;;;;;;8.30;2.70;;;16.70;43.30;;;;;;5060412;28;20028;-69
2021/05/11 08:34:07;;;;;;;11.18;4.22;;;16.60;43.90;;;;;;5062488;28;20032;-69
2021/05/11 08:36:33;;;;;;;11.35;3.22;;;16.60;44.50;;;;;;5059648;28;20037;-69
2021/05/11 08:39:00;;;;;;;8.45;2.08;;;16.60;43.00;;;;;;5061384;28;20021;-69
2021/05/11 08:41:27;;;;;;;7.85;3.78;;;16.50;43.60;;;;;;5062085;28;20067;-68
2021/05/11 08:43:53;;;;;;;12.98;4.15;;;16.50;43.90;;;;;;5062097;28;20036;-68
2021/05/11 08:46:19;;;;;;;12.10;2.47;;;16.40;43.50;;;;;;5061065;28;20033;-68
2021/05/11 08:48:48;;;;;;;11.95;2.70;;;16.40;43.80;;;;;;5060334;28;20089;-68
2021/05/11 08:51:25;;;;;;;10.70;2.30;;;16.40;43.70;;;;;;5060863;28;20021;-69
2021/05/11 09:24:30;;;;;;;13.00;4.47;;;15.90;44.90;;;;;;5063966;28;20105;-69
2021/05/11 09:26:58;;;;;;;9.05;2.72;;;15.80;45.60;;;;;;5064497;28;20408;-69
2021/05/11 09:35:18;;;;;;;10.23;2.90;;;15.70;45.10;;;;;;5063202;28;20036;-69
2021/05/11 10:00:04;;;;;;;10.43;3.42;;;15.20;45.50;;;;;;5063987;28;20037;-69
2021/05/11 10:36:31;;;;;;;12.43;3.30;;;15.10;46.70;;;;;;5064176;28;20043;-70
2021/05/11 10:37:48;;;;;;;6.25;3.20;;;15.10;43.80;;;;;;5063659;28;20112;-69
2021/05/11 10:48:16;;;;;;;7.05;2.22;;;15.10;45.70;;;;;;5064777;28;20106;-71
2021/05/11 10:50:54;;;;;;;10.15;3.30;;;15.10;46.90;;;;;;5062613;28;20024;-69
2021/05/11 10:53:51;;;;;;;13.30;3.55;;;15.10;44.90;;;;;;5060540;28;20093;-69
2021/05/11 10:56:35;;;;;;;9.68;3.35;;;15.10;44.40;;;;;;5062601;28;20103;-69
2021/05/11 10:59:38;;;;;;;9.27;2.80;;;15.10;47.70;;;;;;5061804;28;20032;-69
2021/05/11 11:04:54;;;;;;;10.10;2.38;;;15.20;45.20;;;;;;5063287;28;20078;-69
2021/05/11 11:07:34;;;;;;;14.13;2.50;;;15.20;45.30;;;;;;5062864;28;20462;-70
2021/05/11 11:10:04;;;;;;;10.63;3.50;;;15.10;45.30;;;;;;5061491;28;20039;-69
2021/05/11 11:12:35;;;;;;;14.65;2.50;;;15.00;48.50;;;;;;5061808;28;20083;-69
2021/05/11 11:15:21;;;;;;;8.45;3.35;;;14.90;46.00;;;;;;5062790;28;20143;-69
2021/05/11 11:17:52;;;;;;;7.53;3.15;;;14.90;47.40;;;;;;5061876;28;20039;-70
2021/05/11 11:20:21;;;;;;;7.35;3.28;;;14.80;48.60;;;;;;5063392;28;20040;-69
2021/05/11 11:26:04;;;;;;;7.93;2.28;;;14.70;48.10;;;;;;5060619;28;20102;-69
2021/05/11 11:28:31;;;;;;;5.40;2.15;;;14.70;47.00;;;;;;5061651;28;20115;-69
2021/05/11 11:30:58;;;;;;;6.43;2.45;;;14.70;47.50;;;;;;5062077;28;20358;-69
2021/05/11 11:33:24;;;;;;;5.28;2.03;;;14.60;48.20;;;;;;5061142;28;20377;-69
2021/05/11 11:35:51;;;;;;;4.22;1.67;;;14.60;48.40;;;;;;5061911;28;20046;-69
2021/05/11 11:38:23;;;;;;;8.98;2.45;;;14.50;49.60;;;;;;5062701;28;20056;-68
2021/05/11 11:41:02;;;;;;;4.63;2.72;;;14.50;49.50;;;;;;5061297;28;20020;-69
2021/05/11 11:43:30;;;;;;;8.73;2.60;;;14.40;48.70;;;;;;5060448;28;20028;-69
2021/05/11 11:45:57;;;;;;;7.13;2.53;;;14.40;48.90;;;;;;5061938;28;20479;-69
2021/05/11 11:48:24;;;;;;;9.75;3.50;;;14.30;49.60;;;;;;5061051;28;20458;-69
2021/05/11 11:50:58;;;;;;;7.38;2.17;;;14.30;49.30;;;;;;5062052;28;20027;-69
2021/05/11 11:53:30;;;;;;;10.27;2.92;;;14.30;49.70;;;;;;5060694;28;20104;-69
2021/05/11 11:58:32;;;;;;;5.28;2.17;;;14.30;49.10;;;;;;5060822;28;20028;-69
2021/05/11 12:00:59;;;;;;;16.25;4.30;;;14.30;49.60;;;;;;5060374;28;20033;-69
2021/05/11 12:03:26;;;;;;;8.88;4.07;;;14.30;48.10;;;;;;5061046;28;20029;-68
2021/05/11 12:05:56;;;;;;;13.68;3.70;;;14.20;49.10;;;;;;5061698;28;20028;-69
2021/05/11 12:08:30;;;;;;;6.55;2.88;;;14.20;49.30;;;;;;5061212;28;20074;-70
2021/05/11 12:11:06;;;;;;;10.85;3.22;;;14.20;48.60;;;;;;5059249;28;20024;-69
2021/05/11 12:13:36;;;;;;;6.93;2.55;;;14.20;49.10;;;;;;5062618;28;20447;-69
2021/05/11 12:16:17;;;;;;;6.50;2.78;;;14.20;49.60;;;;;;5061593;28;20094;-69
2021/05/11 12:19:06;;;;;;;7.85;2.88;;;14.20;47.90;;;;;;5061295;28;20017;-69
2021/05/11 12:21:36;;;;;;;10.38;3.75;;;14.20;46.50;;;;;;5059676;28;20032;-69
2021/05/11 12:24:04;;;;;;;6.97;3.25;;;14.20;45.50;;;;;;5061942;28;20097;-69
2021/05/11 12:26:30;;;;;;;9.52;2.58;;;14.30;46.90;;;;;;5060758;28;20029;-69
2021/05/11 12:29:09;;;;;;;4.72;2.67;;;14.20;50.20;;;;;;5061680;28;20021;-69
2021/05/11 12:31:38;;;;;;;6.28;2.50;;;14.10;49.90;;;;;;5060131;28;20051;-69
2021/05/11 12:34:16;;;;;;;12.25;2.75;;;14.10;51.10;;;;;;5066099;28;20020;-69
2021/05/11 12:36:47;;;;;;;1.48;1.38;;;14.10;49.90;;;;;;5065228;28;20040;-70
2021/05/11 12:39:48;;;;;;;10.23;2.08;;;14.00;51.00;;;;;;5065160;28;20032;-69
2021/05/11 12:42:15;;;;;;;7.63;2.58;;;14.00;52.40;;;;;;5067854;28;20116;-69
2021/05/11 12:44:42;;;;;;;10.55;3.42;;;13.90;52.00;;;;;;5066345;28;20020;-70
2021/05/11 12:47:09;;;;;;;10.77;5.75;;;13.90;51.10;;;;;;5064977;28;20063;-70
2021/05/11 12:49:36;;;;;;;5.63;3.05;;;14.00;47.90;;;;;;5061542;28;20454;-69
2021/05/11 12:52:09;;;;;;;19.77;4.50;;;14.00;50.60;;;;;;5066754;28;20040;-69
2021/05/11 12:54:46;;;;;;;8.82;2.90;;;14.00;47.40;;;;;;5064936;28;20409;-69
2021/05/11 12:57:29;;;;;;;15.45;3.67;;;14.00;51.00;;;;;;5064412;28;20104;-69
2021/05/11 13:22:27;;;;;;;13.25;2.65;;;14.00;52.10;;;;;;5065678;28;20039;-69
2021/05/11 13:25:18;;;;;;;6.60;2.65;;;14.10;50.90;;;;;;5064752;28;20473;-68
2021/05/11 13:28:22;;;;;;;6.60;2.30;;;14.00;51.30;;;;;;5064801;28;20029;-68
2021/05/11 13:35:35;;;;;;;6.63;2.55;;;14.00;51.90;;;;;;5065342;28;20040;-68
2021/05/11 13:38:01;;;;;;;8.93;2.17;;;14.00;51.60;;;;;;5065586;28;20457;-68
2021/05/11 13:40:28;;;;;;;4.03;2.42;;;14.00;51.90;;;;;;5063968;28;20115;-67
2021/05/11 13:42:55;;;;;;;6.68;2.58;;;14.00;51.50;;;;;;5062321;28;20422;-68
2021/05/11 13:45:24;;;;;;;7.03;2.35;;;14.00;52.20;;;;;;5064880;28;20027;-68
2021/05/11 13:48:00;;;;;;;9.43;2.90;;;14.00;52.70;;;;;;5064285;28;20443;-68
2021/05/11 13:53:05;;;;;;;9.75;2.30;;;14.00;51.60;;;;;;5065534;28;20028;-68
2021/05/11 13:55:49;;;;;;;3.72;1.95;;;14.00;53.10;;;;;;5063182;28;20029;-68
2021/05/11 14:03:45;;;;;;;13.05;3.42;;;14.10;53.40;;;;;;5059874;28;20093;-68
2021/05/11 14:06:12;;;;;;;7.07;2.95;;;14.10;53.60;;;;;;5064086;28;20470;-68
2021/05/11 14:08:38;;;;;;;7.18;2.63;;;14.10;55.70;;;;;;5062158;28;20028;-68
2021/05/11 14:11:05;;;;;;;7.28;1.88;;;14.10;56.60;;;;;;5062218;28;20028;-68
2021/05/11 14:13:31;;;;;;;4.88;2.65;;;14.30;54.20;;;;;;5063338;28;20025;-68
2021/05/11 14:15:58;;;;;;;12.98;3.63;;;14.20;56.40;;;;;;5062195;28;20481;-68
2021/05/11 14:18:24;;;;;;;8.63;2.97;;;14.40;53.60;;;;;;5063179;28;20121;-68
2021/05/11 14:20:51;;;;;;;9.50;4.20;;;14.40;53.00;;;;;;5061539;28;20061;-68
2021/05/11 14:23:17;;;;;;;18.67;7.07;;;14.50;53.50;;;;;;5062700;28;20024;-68
2021/05/11 14:25:44;;;;;;;9.10;2.65;;;14.60;53.10;;;;;;5059874;28;20025;-69
2021/05/11 14:28:10;;;;;;;6.15;2.72;;;14.70;53.30;;;;;;5063476;28;20017;-68
2021/05/11 14:30:37;;;;;;;6.20;2.63;;;14.80;52.80;;;;;;5061968;28;20020;-68
2021/05/11 14:33:04;;;;;;;8.07;2.33;;;14.80;52.60;;;;;;5060900;28;20111;-68
2021/05/11 14:35:30;;;;;;;6.68;1.83;;;14.90;52.60;;;;;;5061585;28;20435;-68
2021/05/11 14:37:57;;;;;;;8.57;3.90;;;14.90;52.40;;;;;;5060803;28;20099;-68
2021/05/11 14:40:23;;;;;;;6.60;2.80;;;14.90;53.50;;;;;;5062249;28;20169;-68
2021/05/11 14:42:51;;;;;;;8.43;4.00;;;14.90;55.10;;;;;;5062802;28;20029;-68
2021/05/11 14:45:17;;;;;;;7.32;2.47;;;15.00;54.30;;;;;;5062696;28;20099;-68
2021/05/11 14:47:46;;;;;;;4.07;2.15;;;15.20;52.70;;;;;;5062823;28;20025;-68
2021/05/11 14:50:17;;;;;;;24.27;4.38;;;15.20;55.90;;;;;;5064708;28;20461;-68
2021/05/11 14:52:44;;;;;;;5.45;3.55;;;15.20;55.40;;;;;;5066196;28;20059;-69
2021/05/11 14:55:17;;;;;;;13.27;2.97;;;15.40;54.90;;;;;;5066047;28;20029;-70
2021/05/11 14:57:43;;;;;;;6.85;2.63;;;15.50;51.10;;;;;;5062767;28;20025;-68
2021/05/11 15:00:11;;;;;;;8.20;2.92;;;15.60;53.40;;;;;;5062619;28;20029;-68
2021/05/11 15:02:37;;;;;;;8.65;2.30;;;15.70;53.70;;;;;;5058917;28;20059;-68
2021/05/11 15:05:05;;;;;;;8.68;3.55;;;15.80;53.40;;;;;;5060307;28;20017;-68
2021/05/11 15:07:32;;;;;;;13.85;3.17;;;15.90;53.00;;;;;;5063820;28;20021;-68
2021/05/11 15:09:59;;;;;;;12.82;2.78;;;16.00;51.10;;;;;;5060368;28;20339;-68
2021/05/11 15:12:25;;;;;;;17.75;4.53;;;16.10;53.80;;;;;;5060665;28;20024;-69
2021/05/11 15:14:52;;;;;;;21.95;5.30;;;16.10;53.80;;;;;;5058236;28;20035;-68
2021/05/11 15:19:49;;;;;;;9.75;3.00;;;16.40;55.30;;;;;;5061998;28;20025;-68
2021/05/11 15:22:17;;;;;;;12.32;3.85;;;16.40;54.70;;;;;;5061112;28;20060;-68
2021/05/11 15:24:44;;;;;;;15.68;6.03;;;16.50;54.50;;;;;;5061548;28;20032;-68
2021/05/11 15:27:10;;;;;;;15.32;3.88;;;16.70;54.30;;;;;;5058116;28;20030;-68
2021/05/11 15:29:40;;;;;;;9.88;4.35;;;16.80;54.50;;;;;;5054720;28;20017;-68
2021/05/11 15:32:40;;;;;;;18.05;5.05;;;16.80;55.10;;;;;;5056775;28;20021;-68
2021/05/11 15:35:09;;;;;;;21.90;5.20;;;16.90;53.70;;;;;;5049769;28;20140;-68
2021/05/11 15:37:37;;;;;;;19.42;3.70;;;17.00;55.50;;;;;;5056186;28;20021;-68
2021/05/11 15:40:05;;;;;;;19.08;3.78;;;17.20;54.60;;;;;;5054650;28;20108;-68
2021/05/11 15:42:32;;;;;;;17.58;6.68;;;17.30;56.10;;;;;;5050387;28;20091;-69
2021/05/11 15:44:58;;;;;;;13.30;4.07;;;17.30;56.80;;;;;;5059109;28;20021;-68
2021/05/11 15:47:25;;;;;;;16.92;4.70;;;17.50;56.00;;;;;;5053219;28;20103;-68
2021/05/11 15:49:51;;;;;;;14.82;4.47;;;17.70;54.50;;;;;;5057678;28;20032;-69
2021/05/11 15:52:18;;;;;;;9.57;3.17;;;17.80;54.30;;;;;;5058795;28;20029;-69
2021/05/11 15:54:44;;;;;;;14.38;3.58;;;18.00;50.50;;;;;;5062318;28;20032;-68
2021/05/11 15:57:11;;;;;;;10.82;2.90;;;18.10;54.40;;;;;;5059601;28;20116;-68
2021/05/11 15:59:37;;;;;;;14.27;4.10;;;18.10;55.40;;;;;;5057604;28;20039;-68
2021/05/11 16:02:04;;;;;;;9.40;3.22;;;18.10;55.50;;;;;;5058990;28;20094;-68
2021/05/11 16:04:30;;;;;;;14.40;4.65;;;18.20;54.30;;;;;;5057100;28;20017;-68
2021/05/11 16:06:57;;;;;;;11.50;4.30;;;18.30;55.10;;;;;;5060764;28;20082;-69
2021/05/11 16:09:23;;;;;;;12.32;3.65;;;18.40;54.80;;;;;;5061143;28;20118;-68
2021/05/11 16:11:50;;;;;;;26.95;4.00;;;18.40;55.60;;;;;;5060799;28;20111;-68
2021/05/11 16:14:17;;;;;;;10.63;3.92;;;18.50;55.70;;;;;;5058536;28;20040;-69
2021/05/11 16:16:43;;;;;;;16.52;2.90;;;18.50;56.60;;;;;;5061203;28;20410;-68
2021/05/11 16:19:09;;;;;;;11.90;3.83;;;18.70;55.50;;;;;;5062540;28;20032;-68
2021/05/11 16:21:36;;;;;;;11.38;4.00;;;18.90;54.30;;;;;;5061303;28;20021;-69
2021/05/11 16:24:03;;;;;;;12.30;3.78;;;18.90;54.50;;;;;;5062468;28;20029;-68
2021/05/11 16:26:30;;;;;;;11.15;3.60;;;19.00;54.90;;;;;;5063279;28;20017;-68
2021/05/11 16:28:56;;;;;;;12.43;3.40;;;19.00;55.50;;;;;;5062090;28;20493;-68
2021/05/11 16:31:24;;;;;;;15.93;3.97;;;19.00;55.60;;;;;;5062330;28;20029;-69
2021/05/11 16:33:51;;;;;;;15.68;3.53;;;19.20;52.30;;;;;;5062434;28;20048;-69
2021/05/11 16:36:17;;;;;;;39.83;4.88;;;19.20;53.90;;;;;;5053107;28;20052;-69
2021/05/11 16:38:44;;;;;;;13.45;3.53;;;19.30;55.10;;;;;;5057207;28;20427;-69
2021/05/11 16:41:11;;;;;;;11.18;3.08;;;19.20;55.50;;;;;;5054205;28;20036;-69
2021/05/11 16:43:37;;;;;;;21.90;5.13;;;19.30;54.50;;;;;;5059092;28;20120;-69
2021/05/11 16:46:05;;;;;;;7.22;2.55;;;19.40;54.90;;;;;;5055392;28;20176;-69
2021/05/11 16:48:34;;;;;;;18.58;4.80;;;19.60;53.90;;;;;;5059412;28;20028;-69
2021/05/11 16:51:01;;;;;;;14.30;3.92;;;19.60;54.90;;;;;;5054952;28;20020;-69
2021/05/11 16:53:28;;;;;;;16.00;3.50;;;19.80;54.00;;;;;;5058728;28;20366;-69
2021/05/11 16:55:54;;;;;;;8.73;2.72;;;19.90;53.10;;;;;;5056380;28;20028;-69
2021/05/11 16:58:21;;;;;;;17.45;4.00;;;20.10;51.10;;;;;;5056823;28;20029;-69
2021/05/11 17:00:49;;;;;;;21.15;4.07;;;20.20;52.00;;;;;;5058499;28;20044;-69
2021/05/11 17:03:16;;;;;;;14.73;3.92;;;20.30;53.70;;;;;;5059251;28;20020;-69